sensor_id;sensor_type;location;lat;lon;timestamp;pressure;altitude;pressure_sealevel;temperature;humidity
43281;BME280;62175;49.416;8.690;2024-01-30T00:01:52;101917.92;;;8.54;52.70
43281;BME280;62175;49.416;8.690;2024-01-30T00:04:19;101911.30;;;8.57;52.54
43281;BME280;62175;49.416;8.690;2024-01-30T00:06:46;101912.80;;;8.62;53.08
43281;BME280;62175;49.416;8.690;2024-01-30T00:09:14;101913.68;;;8.67;52.61
43281;BME280;62175;49.416;8.690;2024-01-30T00:11:41;101913.68;;;8.36;52.55
43281;BME280;62175;49.416;8.690;2024-01-30T00:14:08;101913.69;;;8.61;52.57
43281;BME280;62175;49.416;8.690;2024-01-30T00:16:36;101912.30;;;8.30;52.57
43281;BME280;62175;49.416;8.690;2024-01-30T00:19:03;101916.58;;;8.30;52.44
43281;BME280;62175;49.416;8.690;2024-01-30T00:21:30;101911.84;;;8.40;52.59
43281;BME280;62175;49.416;8.690;2024-01-30T00:23:57;101913.18;;;8.63;52.05
43281;BME280;62175;49.416;8.690;2024-01-30T00:26:24;101911.75;;;8.56;52.72
43281;BME280;62175;49.416;8.690;2024-01-30T00:28:51;101912.81;;;8.47;52.35
43281;BME280;62175;49.416;8.690;2024-01-30T00:31:18;101911.92;;;8.44;51.97
43281;BME280;62175;49.416;8.690;2024-01-30T00:33:45;101913.97;;;8.53;52.52
43281;BME280;62175;49.416;8.690;2024-01-30T00:36:12;101909.18;;;8.63;52.35
43281;BME280;62175;49.416;8.690;2024-01-30T00:38:39;101911.13;;;8.60;51.98
43281;BME280;62175;49.416;8.690;2024-01-30T00:41:07;101911.30;;;8.31;52.11
43281;BME280;62175;49.416;8.690;2024-01-30T00:43:35;101913.53;;;8.21;51.26
43281;BME280;62175;49.416;8.690;2024-01-30T00:46:02;101913.75;;;8.51;52.48
43281;BME280;62175;49.416;8.690;2024-01-30T00:48:29;101916.36;;;8.30;51.80
43281;BME280;62175;49.416;8.690;2024-01-30T00:50:55;101916.08;;;8.57;51.37
43281;BME280;62175;49.416;8.690;2024-01-30T00:53:22;101916.35;;;8.62;52.71
43281;BME280;62175;49.416;8.690;2024-01-30T00:55:50;101912.57;;;8.61;52.32
43281;BME280;62175;49.416;8.690;2024-01-30T00:58:17;101916.30;;;8.57;51.00
43281;BME280;62175;49.416;8.690;2024-01-30T01:00:44;101915.08;;;8.53;52.39
43281;BME280;62175;49.416;8.690;2024-01-30T01:03:11;101913.19;;;8.55;51.31
43281;BME280;62175;49.416;8.690;2024-01-30T01:05:39;101913.36;;;8.55;51.56
43281;BME280;62175;49.416;8.690;2024-01-30T01:08:06;101911.80;;;8.59;51.85
43281;BME280;62175;49.416;8.690;2024-01-30T01:10:33;101913.92;;;8.50;51.25
43281;BME280;62175;49.416;8.690;2024-01-30T01:13:00;101913.42;;;8.52;51.67
43281;BME280;62175;49.416;8.690;2024-01-30T01:15:28;101914.86;;;8.53;52.44
43281;BME280;62175;49.416;8.690;2024-01-30T01:17:54;101919.04;;;8.44;51.85
43281;BME280;62175;49.416;8.690;2024-01-30T01:20:22;101921.03;;;8.57;51.36
43281;BME280;62175;49.416;8.690;2024-01-30T01:22:49;101920.98;;;8.47;51.09
43281;BME280;62175;49.416;8.690;2024-01-30T01:25:15;101924.48;;;8.50;51.49
43281;BME280;62175;49.416;8.690;2024-01-30T01:27:42;101916.30;;;8.58;52.75
43281;BME280;62175;49.416;8.690;2024-01-30T01:30:10;101916.81;;;8.45;51.88
43281;BME280;62175;49.416;8.690;2024-01-30T01:32:37;101914.80;;;8.60;51.55
43281;BME280;62175;49.416;8.690;2024-01-30T01:35:05;101912.64;;;9.01;50.98
43281;BME280;62175;49.416;8.690;2024-01-30T01:37:31;101913.87;;;8.47;51.81
43281;BME280;62175;49.416;8.690;2024-01-30T01:39:59;101914.65;;;8.38;52.46
43281;BME280;62175;49.416;8.690;2024-01-30T01:42:27;101908.14;;;8.45;51.68
43281;BME280;62175;49.416;8.690;2024-01-30T01:44:54;101907.59;;;8.35;52.14
43281;BME280;62175;49.416;8.690;2024-01-30T01:47:21;101906.59;;;8.30;51.76
43281;BME280;62175;49.416;8.690;2024-01-30T01:49:49;101904.76;;;8.29;51.60
43281;BME280;62175;49.416;8.690;2024-01-30T01:52:17;101904.37;;;8.38;53.36
43281;BME280;62175;49.416;8.690;2024-01-30T01:54:43;101907.69;;;8.54;52.09
43281;BME280;62175;49.416;8.690;2024-01-30T01:57:11;101903.74;;;8.49;51.41
43281;BME280;62175;49.416;8.690;2024-01-30T01:59:38;101902.42;;;8.42;51.98
43281;BME280;62175;49.416;8.690;2024-01-30T02:02:07;101902.75;;;8.13;51.30
43281;BME280;62175;49.416;8.690;2024-01-30T02:04:38;101901.67;;;8.36;51.03
43281;BME280;62175;49.416;8.690;2024-01-30T02:07:05;101900.13;;;8.69;51.52
43281;BME280;62175;49.416;8.690;2024-01-30T02:09:33;101900.46;;;8.52;51.37
43281;BME280;62175;49.416;8.690;2024-01-30T02:12:00;101896.79;;;8.75;50.80
43281;BME280;62175;49.416;8.690;2024-01-30T02:14:27;101896.36;;;8.59;51.38
43281;BME280;62175;49.416;8.690;2024-01-30T02:16:54;101896.74;;;8.44;51.15
43281;BME280;62175;49.416;8.690;2024-01-30T02:19:21;101896.80;;;8.37;51.19
43281;BME280;62175;49.416;8.690;2024-01-30T02:21:48;101901.37;;;8.35;52.23
43281;BME280;62175;49.416;8.690;2024-01-30T02:24:15;101900.04;;;8.46;51.34
43281;BME280;62175;49.416;8.690;2024-01-30T02:26:42;101901.87;;;8.19;51.49
43281;BME280;62175;49.416;8.690;2024-01-30T02:29:09;101901.59;;;8.22;51.15
43281;BME280;62175;49.416;8.690;2024-01-30T02:31:36;101899.93;;;8.24;51.29
43281;BME280;62175;49.416;8.690;2024-01-30T02:34:03;101900.76;;;8.27;50.95
43281;BME280;62175;49.416;8.690;2024-01-30T02:36:30;101900.70;;;8.82;52.16
43281;BME280;62175;49.416;8.690;2024-01-30T02:38:57;101904.10;;;8.21;51.58
43281;BME280;62175;49.416;8.690;2024-01-30T02:41:24;101899.54;;;7.86;51.19
43281;BME280;62175;49.416;8.690;2024-01-30T02:43:52;101900.76;;;8.26;51.13
43281;BME280;62175;49.416;8.690;2024-01-30T02:46:19;101911.55;;;8.38;51.20
43281;BME280;62175;49.416;8.690;2024-01-30T02:48:46;101904.32;;;8.11;51.95
43281;BME280;62175;49.416;8.690;2024-01-30T02:51:14;101904.66;;;8.26;51.48
43281;BME280;62175;49.416;8.690;2024-01-30T02:53:41;101906.32;;;8.58;51.53
43281;BME280;62175;49.416;8.690;2024-01-30T02:56:08;101907.27;;;8.55;51.57
43281;BME280;62175;49.416;8.690;2024-01-30T02:58:35;101903.16;;;8.28;51.34
43281;BME280;62175;49.416;8.690;2024-01-30T03:01:02;101905.16;;;8.08;51.72
43281;BME280;62175;49.416;8.690;2024-01-30T03:03:29;101902.32;;;7.88;51.72
43281;BME280;62175;49.416;8.690;2024-01-30T03:05:57;101909.27;;;8.10;51.94
43281;BME280;62175;49.416;8.690;2024-01-30T03:08:24;101900.15;;;8.09;50.87
43281;BME280;62175;49.416;8.690;2024-01-30T03:10:51;101896.82;;;8.53;51.57
43281;BME280;62175;49.416;8.690;2024-01-30T03:13:18;101902.15;;;8.57;52.22
43281;BME280;62175;49.416;8.690;2024-01-30T03:15:45;101903.60;;;8.06;51.76
43281;BME280;62175;49.416;8.690;2024-01-30T03:18:12;101902.93;;;8.27;51.82
43281;BME280;62175;49.416;8.690;2024-01-30T03:20:40;101907.60;;;8.29;51.00
43281;BME280;62175;49.416;8.690;2024-01-30T03:23:08;101904.04;;;8.56;51.36
43281;BME280;62175;49.416;8.690;2024-01-30T03:25:35;101907.21;;;8.50;51.64
43281;BME280;62175;49.416;8.690;2024-01-30T03:28:02;101903.21;;;8.15;51.36
43281;BME280;62175;49.416;8.690;2024-01-30T03:30:29;101903.10;;;8.06;51.16
43281;BME280;62175;49.416;8.690;2024-01-30T03:32:56;101905.04;;;8.46;51.78
43281;BME280;62175;49.416;8.690;2024-01-30T03:35:23;101903.54;;;8.53;51.48
43281;BME280;62175;49.416;8.690;2024-01-30T03:37:51;101900.93;;;8.16;52.63
43281;BME280;62175;49.416;8.690;2024-01-30T03:40:18;101905.43;;;8.04;51.56
43281;BME280;62175;49.416;8.690;2024-01-30T03:42:45;101900.60;;;7.89;51.23
43281;BME280;62175;49.416;8.690;2024-01-30T03:45:12;101912.05;;;7.97;51.49
43281;BME280;62175;49.416;8.690;2024-01-30T03:47:39;101919.49;;;7.99;51.49
43281;BME280;62175;49.416;8.690;2024-01-30T03:50:07;101909.38;;;8.05;51.24
43281;BME280;62175;49.416;8.690;2024-01-30T03:52:33;101915.94;;;8.45;50.92
43281;BME280;62175;49.416;8.690;2024-01-30T03:55:00;101913.77;;;8.25;50.79
43281;BME280;62175;49.416;8.690;2024-01-30T03:57:27;101911.71;;;8.36;51.58
43281;BME280;62175;49.416;8.690;2024-01-30T03:59:54;101913.38;;;8.18;51.26
43281;BME280;62175;49.416;8.690;2024-01-30T04:02:21;101912.71;;;8.34;51.49
43281;BME280;62175;49.416;8.690;2024-01-30T04:04:49;101912.38;;;7.86;52.05
43281;BME280;62175;49.416;8.690;2024-01-30T04:07:16;101918.32;;;7.79;52.32
43281;BME280;62175;49.416;8.690;2024-01-30T04:09:43;101912.37;;;7.81;50.69
43281;BME280;62175;49.416;8.690;2024-01-30T04:12:11;101907.65;;;8.35;51.76
43281;BME280;62175;49.416;8.690;2024-01-30T04:14:39;101912.43;;;8.29;51.48
43281;BME280;62175;49.416;8.690;2024-01-30T04:17:06;101907.54;;;7.89;51.19
43281;BME280;62175;49.416;8.690;2024-01-30T04:19:37;101905.04;;;8.47;51.04
43281;BME280;62175;49.416;8.690;2024-01-30T04:22:03;101905.49;;;7.90;50.37
43281;BME280;62175;49.416;8.690;2024-01-30T04:24:31;101907.16;;;8.14;51.33
43281;BME280;62175;49.416;8.690;2024-01-30T04:26:58;101907.82;;;8.22;51.34
43281;BME280;62175;49.416;8.690;2024-01-30T04:29:25;101912.49;;;7.98;51.85
43281;BME280;62175;49.416;8.690;2024-01-30T04:31:52;101913.88;;;8.07;51.16
43281;BME280;62175;49.416;8.690;2024-01-30T04:34:20;101914.87;;;7.81;51.38
43281;BME280;62175;49.416;8.690;2024-01-30T04:36:47;101911.60;;;7.81;51.08
43281;BME280;62175;49.416;8.690;2024-01-30T04:39:14;101914.26;;;8.01;51.07
43281;BME280;62175;49.416;8.690;2024-01-30T04:41:41;101909.99;;;8.31;51.87
43281;BME280;62175;49.416;8.690;2024-01-30T04:44:09;101916.04;;;8.21;50.91
43281;BME280;62175;49.416;8.690;2024-01-30T04:46:35;101921.37;;;7.96;51.21
43281;BME280;62175;49.416;8.690;2024-01-30T04:49:02;101914.21;;;8.27;51.07
43281;BME280;62175;49.416;8.690;2024-01-30T04:51:29;101917.15;;;7.95;51.61
43281;BME280;62175;49.416;8.690;2024-01-30T04:53:55;101917.53;;;7.70;50.79
43281;BME280;62175;49.416;8.690;2024-01-30T04:56:23;101923.25;;;8.15;51.27
43281;BME280;62175;49.416;8.690;2024-01-30T04:58:49;101923.46;;;8.04;50.93
43281;BME280;62175;49.416;8.690;2024-01-30T05:01:16;101925.63;;;7.76;51.36
43281;BME280;62175;49.416;8.690;2024-01-30T05:03:43;101928.07;;;8.00;50.65
43281;BME280;62175;49.416;8.690;2024-01-30T05:06:10;101929.46;;;7.99;51.75
43281;BME280;62175;49.416;8.690;2024-01-30T05:08:38;101929.06;;;7.68;51.87
43281;BME280;62175;49.416;8.690;2024-01-30T05:11:05;101934.40;;;8.01;51.95
43281;BME280;62175;49.416;8.690;2024-01-30T05:13:32;101931.52;;;7.77;51.02
43281;BME280;62175;49.416;8.690;2024-01-30T05:16:01;101937.35;;;8.04;50.75
43281;BME280;62175;49.416;8.690;2024-01-30T05:18:29;101941.67;;;7.92;50.59
43281;BME280;62175;49.416;8.690;2024-01-30T05:20:55;101940.82;;;7.57;50.84
43281;BME280;62175;49.416;8.690;2024-01-30T05:23:22;101943.37;;;7.35;51.34
43281;BME280;62175;49.416;8.690;2024-01-30T05:25:49;101944.50;;;7.43;51.87
43281;BME280;62175;49.416;8.690;2024-01-30T05:28:17;101941.60;;;7.88;50.66
43281;BME280;62175;49.416;8.690;2024-01-30T05:30:44;101945.23;;;7.95;50.82
43281;BME280;62175;49.416;8.690;2024-01-30T05:33:10;101943.08;;;8.06;50.84
43281;BME280;62175;49.416;8.690;2024-01-30T05:35:38;101941.12;;;7.99;51.65
43281;BME280;62175;49.416;8.690;2024-01-30T05:38:05;101943.88;;;7.90;51.15
43281;BME280;62175;49.416;8.690;2024-01-30T05:40:32;101944.21;;;7.87;51.28
43281;BME280;62175;49.416;8.690;2024-01-30T05:43:00;101942.85;;;7.73;51.52
43281;BME280;62175;49.416;8.690;2024-01-30T05:45:27;101941.50;;;7.92;51.21
43281;BME280;62175;49.416;8.690;2024-01-30T05:47:54;101942.22;;;7.62;50.96
43281;BME280;62175;49.416;8.690;2024-01-30T05:50:21;101945.95;;;7.95;51.03
43281;BME280;62175;49.416;8.690;2024-01-30T05:52:48;101941.34;;;7.95;50.68
43281;BME280;62175;49.416;8.690;2024-01-30T05:55:14;101941.43;;;7.85;52.27
43281;BME280;62175;49.416;8.690;2024-01-30T05:57:41;101948.38;;;7.89;51.55
43281;BME280;62175;49.416;8.690;2024-01-30T06:00:09;101944.05;;;7.65;50.78
43281;BME280;62175;49.416;8.690;2024-01-30T06:02:36;101939.88;;;7.60;51.19
43281;BME280;62175;49.416;8.690;2024-01-30T06:05:04;101947.95;;;7.96;50.67
43281;BME280;62175;49.416;8.690;2024-01-30T06:07:31;101943.34;;;7.97;51.35
43281;BME280;62175;49.416;8.690;2024-01-30T06:09:58;101945.02;;;8.08;51.04
43281;BME280;62175;49.416;8.690;2024-01-30T06:12:25;101945.78;;;7.93;50.81
43281;BME280;62175;49.416;8.690;2024-01-30T06:14:52;101945.99;;;7.88;50.63
43281;BME280;62175;49.416;8.690;2024-01-30T06:17:19;101953.71;;;7.37;51.40
43281;BME280;62175;49.416;8.690;2024-01-30T06:19:47;101951.47;;;7.78;52.29
43281;BME280;62175;49.416;8.690;2024-01-30T06:22:15;101947.59;;;7.79;51.45
43281;BME280;62175;49.416;8.690;2024-01-30T06:24:43;101947.50;;;7.66;51.78
43281;BME280;62175;49.416;8.690;2024-01-30T06:27:10;101947.03;;;7.79;51.82
43281;BME280;62175;49.416;8.690;2024-01-30T06:29:37;101948.97;;;8.00;51.12
43281;BME280;62175;49.416;8.690;2024-01-30T06:32:05;101946.08;;;7.51;51.04
43281;BME280;62175;49.416;8.690;2024-01-30T06:34:32;101945.09;;;7.81;51.14
43281;BME280;62175;49.416;8.690;2024-01-30T06:37:00;101956.58;;;7.77;50.98
43281;BME280;62175;49.416;8.690;2024-01-30T06:39:27;101946.81;;;7.78;51.50
43281;BME280;62175;49.416;8.690;2024-01-30T06:41:54;101952.72;;;7.66;51.09
43281;BME280;62175;49.416;8.690;2024-01-30T06:44:21;101948.92;;;7.80;50.43
43281;BME280;62175;49.416;8.690;2024-01-30T06:46:48;101950.84;;;7.67;51.93
43281;BME280;62175;49.416;8.690;2024-01-30T06:49:15;101956.28;;;7.40;51.67
43281;BME280;62175;49.416;8.690;2024-01-30T06:51:43;101953.99;;;7.63;51.11
43281;BME280;62175;49.416;8.690;2024-01-30T06:54:10;101954.94;;;7.63;51.49
43281;BME280;62175;49.416;8.690;2024-01-30T06:56:37;101958.96;;;7.50;51.96
43281;BME280;62175;49.416;8.690;2024-01-30T06:59:05;101961.27;;;7.36;50.95
43281;BME280;62175;49.416;8.690;2024-01-30T07:01:32;101963.48;;;7.61;51.03
43281;BME280;62175;49.416;8.690;2024-01-30T07:04:00;101960.74;;;7.50;51.01
43281;BME280;62175;49.416;8.690;2024-01-30T07:06:27;101964.54;;;7.61;50.93
43281;BME280;62175;49.416;8.690;2024-01-30T07:08:54;101964.96;;;7.53;52.41
43281;BME280;62175;49.416;8.690;2024-01-30T07:11:22;101960.43;;;7.34;51.62
43281;BME280;62175;49.416;8.690;2024-01-30T07:13:50;101958.97;;;7.54;51.91
43281;BME280;62175;49.416;8.690;2024-01-30T07:16:17;101954.32;;;7.61;51.18
43281;BME280;62175;49.416;8.690;2024-01-30T07:18:44;101955.83;;;7.64;51.67
43281;BME280;62175;49.416;8.690;2024-01-30T07:21:11;101959.45;;;7.46;50.91
43281;BME280;62175;49.416;8.690;2024-01-30T07:23:38;101962.52;;;7.53;51.15
43281;BME280;62175;49.416;8.690;2024-01-30T07:26:05;101967.36;;;7.58;52.42
43281;BME280;62175;49.416;8.690;2024-01-30T07:28:32;101964.22;;;7.67;51.67
43281;BME280;62175;49.416;8.690;2024-01-30T07:30:59;101961.98;;;7.58;52.17
43281;BME280;62175;49.416;8.690;2024-01-30T07:33:26;101961.71;;;7.86;51.15
43281;BME280;62175;49.416;8.690;2024-01-30T07:35:53;101960.84;;;7.70;50.77
43281;BME280;62175;49.416;8.690;2024-01-30T07:38:20;101961.29;;;7.73;51.83
43281;BME280;62175;49.416;8.690;2024-01-30T07:40:47;101960.84;;;7.69;51.77
43281;BME280;62175;49.416;8.690;2024-01-30T07:43:14;101966.40;;;7.51;51.56
43281;BME280;62175;49.416;8.690;2024-01-30T07:45:41;101962.57;;;7.51;50.88
43281;BME280;62175;49.416;8.690;2024-01-30T07:48:07;101966.72;;;7.69;51.54
43281;BME280;62175;49.416;8.690;2024-01-30T07:50:34;101967.32;;;7.64;51.58
43281;BME280;62175;49.416;8.690;2024-01-30T07:53:02;101965.94;;;7.39;51.38
43281;BME280;62175;49.416;8.690;2024-01-30T07:55:29;101966.57;;;7.74;50.86
43281;BME280;62175;49.416;8.690;2024-01-30T08:02:20;101974.39;;;7.92;51.35
43281;BME280;62175;49.416;8.690;2024-01-30T08:04:47;101975.64;;;7.11;50.97
43281;BME280;62175;49.416;8.690;2024-01-30T08:07:14;101974.57;;;7.77;51.18
43281;BME280;62175;49.416;8.690;2024-01-30T08:09:42;101980.47;;;7.81;51.65
43281;BME280;62175;49.416;8.690;2024-01-30T08:12:09;101982.75;;;7.85;51.08
43281;BME280;62175;49.416;8.690;2024-01-30T08:14:36;101991.12;;;7.77;51.16
43281;BME280;62175;49.416;8.690;2024-01-30T08:17:03;101990.65;;;7.89;51.72
43281;BME280;62175;49.416;8.690;2024-01-30T08:19:30;101994.16;;;7.98;51.56
43281;BME280;62175;49.416;8.690;2024-01-30T08:21:57;101996.08;;;7.84;50.81
43281;BME280;62175;49.416;8.690;2024-01-30T08:24:24;102005.29;;;8.05;50.63
43281;BME280;62175;49.416;8.690;2024-01-30T08:26:51;102001.27;;;8.00;51.03
43281;BME280;62175;49.416;8.690;2024-01-30T08:29:18;102010.03;;;8.15;51.24
43281;BME280;62175;49.416;8.690;2024-01-30T08:31:45;102010.73;;;8.04;51.17
43281;BME280;62175;49.416;8.690;2024-01-30T08:34:12;102010.98;;;7.94;51.06
43281;BME280;62175;49.416;8.690;2024-01-30T08:36:40;102017.31;;;8.14;51.93
43281;BME280;62175;49.416;8.690;2024-01-30T08:39:07;102018.66;;;8.00;51.55
43281;BME280;62175;49.416;8.690;2024-01-30T08:41:34;102015.68;;;7.79;51.42
43281;BME280;62175;49.416;8.690;2024-01-30T08:44:01;102009.82;;;7.92;51.49
43281;BME280;62175;49.416;8.690;2024-01-30T08:46:28;102004.94;;;8.00;52.70
43281;BME280;62175;49.416;8.690;2024-01-30T08:48:55;102007.30;;;7.84;51.58
43281;BME280;62175;49.416;8.690;2024-01-30T08:51:22;102009.72;;;8.00;53.23
43281;BME280;62175;49.416;8.690;2024-01-30T08:53:49;102007.19;;;8.11;52.10
43281;BME280;62175;49.416;8.690;2024-01-30T08:56:16;102008.70;;;8.16;52.32
43281;BME280;62175;49.416;8.690;2024-01-30T08:58:43;102004.44;;;7.99;51.48
43281;BME280;62175;49.416;8.690;2024-01-30T09:01:10;102008.45;;;7.54;51.92
43281;BME280;62175;49.416;8.690;2024-01-30T09:03:37;102007.39;;;7.85;51.69
43281;BME280;62175;49.416;8.690;2024-01-30T09:06:04;102004.73;;;8.37;51.43
43281;BME280;62175;49.416;8.690;2024-01-30T09:08:35;102003.46;;;8.13;51.59
43281;BME280;62175;49.416;8.690;2024-01-30T09:11:08;101999.74;;;8.17;51.26
43281;BME280;62175;49.416;8.690;2024-01-30T09:13:35;101997.95;;;8.10;52.07
43281;BME280;62175;49.416;8.690;2024-01-30T09:16:03;101992.78;;;8.08;52.21
43281;BME280;62175;49.416;8.690;2024-01-30T09:18:31;101996.06;;;8.11;51.44
43281;BME280;62175;49.416;8.690;2024-01-30T09:20:58;101996.88;;;8.01;51.78
43281;BME280;62175;49.416;8.690;2024-01-30T09:23:27;102006.23;;;7.88;51.68
43281;BME280;62175;49.416;8.690;2024-01-30T09:25:54;102003.22;;;8.06;51.86
43281;BME280;62175;49.416;8.690;2024-01-30T09:28:22;102012.84;;;7.77;51.40
43281;BME280;62175;49.416;8.690;2024-01-30T09:30:49;102015.66;;;7.79;52.20
43281;BME280;62175;49.416;8.690;2024-01-30T09:33:16;102014.65;;;8.06;52.76
43281;BME280;62175;49.416;8.690;2024-01-30T09:35:43;102016.20;;;8.01;54.10
43281;BME280;62175;49.416;8.690;2024-01-30T09:38:10;102017.81;;;8.00;51.59
43281;BME280;62175;49.416;8.690;2024-01-30T09:40:36;102013.32;;;8.38;51.77
43281;BME280;62175;49.416;8.690;2024-01-30T09:43:03;102014.25;;;8.04;51.28
43281;BME280;62175;49.416;8.690;2024-01-30T09:45:32;102015.93;;;8.60;51.46
43281;BME280;62175;49.416;8.690;2024-01-30T09:48:00;102018.32;;;8.12;51.94
43281;BME280;62175;49.416;8.690;2024-01-30T09:50:27;102017.55;;;8.39;51.74
43281;BME280;62175;49.416;8.690;2024-01-30T09:52:55;102020.67;;;8.24;51.79
43281;BME280;62175;49.416;8.690;2024-01-30T09:55:24;102019.38;;;8.39;51.48
43281;BME280;62175;49.416;8.690;2024-01-30T09:57:51;102017.28;;;8.25;51.91
43281;BME280;62175;49.416;8.690;2024-01-30T10:00:18;102013.10;;;8.38;51.42
43281;BME280;62175;49.416;8.690;2024-01-30T10:02:45;102015.61;;;8.27;51.57
43281;BME280;62175;49.416;8.690;2024-01-30T10:05:15;102020.11;;;8.47;51.58
43281;BME280;62175;49.416;8.690;2024-01-30T10:07:53;102021.72;;;8.24;51.22
43281;BME280;62175;49.416;8.690;2024-01-30T10:10:22;102016.17;;;8.26;51.83
43281;BME280;62175;49.416;8.690;2024-01-30T10:12:49;102015.73;;;8.35;51.27
43281;BME280;62175;49.416;8.690;2024-01-30T10:15:17;102016.56;;;8.32;51.87
43281;BME280;62175;49.416;8.690;2024-01-30T10:17:45;102016.73;;;8.46;51.47
43281;BME280;62175;49.416;8.690;2024-01-30T10:20:12;102017.33;;;8.23;52.58
43281;BME280;62175;49.416;8.690;2024-01-30T10:22:40;102015.73;;;8.42;51.86
43281;BME280;62175;49.416;8.690;2024-01-30T10:25:07;102016.72;;;8.49;52.13
43281;BME280;62175;49.416;8.690;2024-01-30T10:27:34;102014.06;;;8.38;51.68
43281;BME280;62175;49.416;8.690;2024-01-30T10:30:01;102017.07;;;8.44;51.87
43281;BME280;62175;49.416;8.690;2024-01-30T10:32:29;102016.23;;;8.33;52.44
43281;BME280;62175;49.416;8.690;2024-01-30T10:34:56;102016.12;;;8.59;51.83
43281;BME280;62175;49.416;8.690;2024-01-30T10:37:25;102017.40;;;8.54;51.51
43281;BME280;62175;49.416;8.690;2024-01-30T10:39:53;102020.18;;;8.54;51.96
43281;BME280;62175;49.416;8.690;2024-01-30T10:42:25;102019.35;;;8.56;52.43
43281;BME280;62175;49.416;8.690;2024-01-30T10:44:58;102017.29;;;8.68;52.56
43281;BME280;62175;49.416;8.690;2024-01-30T10:47:28;102011.34;;;8.73;52.27
43281;BME280;62175;49.416;8.690;2024-01-30T10:49:56;102014.34;;;8.89;51.85
43281;BME280;62175;49.416;8.690;2024-01-30T10:52:23;102016.51;;;8.77;51.75
43281;BME280;62175;49.416;8.690;2024-01-30T10:54:51;102012.89;;;8.58;52.14
43281;BME280;62175;49.416;8.690;2024-01-30T10:57:18;102008.00;;;8.60;52.32
43281;BME280;62175;49.416;8.690;2024-01-30T10:59:46;102002.38;;;8.89;52.69
43281;BME280;62175;49.416;8.690;2024-01-30T11:02:14;102000.15;;;8.94;52.44
43281;BME280;62175;49.416;8.690;2024-01-30T11:04:41;101998.13;;;9.07;52.78
43281;BME280;62175;49.416;8.690;2024-01-30T11:07:16;101997.51;;;8.87;53.30
43281;BME280;62175;49.416;8.690;2024-01-30T11:09:49;102002.58;;;8.86;52.57
43281;BME280;62175;49.416;8.690;2024-01-30T11:12:16;102001.91;;;9.17;52.53
43281;BME280;62175;49.416;8.690;2024-01-30T11:14:48;102004.14;;;9.11;53.60
43281;BME280;62175;49.416;8.690;2024-01-30T11:17:15;102006.02;;;9.21;53.21
43281;BME280;62175;49.416;8.690;2024-01-30T11:19:42;102008.76;;;8.87;52.72
43281;BME280;62175;49.416;8.690;2024-01-30T11:22:10;102015.97;;;9.27;54.15
43281;BME280;62175;49.416;8.690;2024-01-30T11:24:39;102019.09;;;9.00;54.33
43281;BME280;62175;49.416;8.690;2024-01-30T11:27:09;102011.03;;;8.74;53.74
43281;BME280;62175;49.416;8.690;2024-01-30T11:29:36;102010.42;;;8.88;52.08
43281;BME280;62175;49.416;8.690;2024-01-30T11:32:04;102007.81;;;9.12;52.14
43281;BME280;62175;49.416;8.690;2024-01-30T11:34:32;102002.06;;;9.01;53.28
43281;BME280;62175;49.416;8.690;2024-01-30T11:37:03;102001.04;;;9.40;52.55
43281;BME280;62175;49.416;8.690;2024-01-30T11:39:32;101995.69;;;9.23;52.87
43281;BME280;62175;49.416;8.690;2024-01-30T11:41:59;101995.05;;;9.29;51.84
43281;BME280;62175;49.416;8.690;2024-01-30T11:44:26;101989.47;;;9.36;52.63
43281;BME280;62175;49.416;8.690;2024-01-30T11:46:54;101985.11;;;9.43;52.92
43281;BME280;62175;49.416;8.690;2024-01-30T11:49:21;101984.74;;;9.36;53.93
43281;BME280;62175;49.416;8.690;2024-01-30T11:51:48;101983.73;;;9.59;51.90
43281;BME280;62175;49.416;8.690;2024-01-30T11:54:15;101976.19;;;9.48;52.10
43281;BME280;62175;49.416;8.690;2024-01-30T11:56:42;101978.12;;;9.55;53.23
43281;BME280;62175;49.416;8.690;2024-01-30T11:59:10;101975.13;;;9.74;53.45
43281;BME280;62175;49.416;8.690;2024-01-30T12:01:37;101971.71;;;9.38;52.17
43281;BME280;62175;49.416;8.690;2024-01-30T12:04:04;101971.40;;;9.27;53.17
43281;BME280;62175;49.416;8.690;2024-01-30T12:06:32;101961.00;;;9.23;52.91
43281;BME280;62175;49.416;8.690;2024-01-30T12:09:00;101954.63;;;9.52;53.56
43281;BME280;62175;49.416;8.690;2024-01-30T12:11:27;101950.02;;;9.46;52.41
43281;BME280;62175;49.416;8.690;2024-01-30T12:13:55;101946.12;;;9.08;53.61
43281;BME280;62175;49.416;8.690;2024-01-30T12:16:22;101943.26;;;9.15;51.73
43281;BME280;62175;49.416;8.690;2024-01-30T12:18:59;101938.25;;;9.32;51.71
43281;BME280;62175;49.416;8.690;2024-01-30T12:21:27;101939.83;;;9.46;51.59
43281;BME280;62175;49.416;8.690;2024-01-30T12:23:54;101936.50;;;9.39;52.49
43281;BME280;62175;49.416;8.690;2024-01-30T12:26:21;101931.55;;;9.37;52.49
43281;BME280;62175;49.416;8.690;2024-01-30T12:28:49;101928.86;;;9.58;51.59
43281;BME280;62175;49.416;8.690;2024-01-30T12:31:16;101929.26;;;9.83;51.42
43281;BME280;62175;49.416;8.690;2024-01-30T12:33:43;101930.72;;;10.02;51.87
43281;BME280;62175;49.416;8.690;2024-01-30T12:36:12;101929.87;;;9.83;51.77
43281;BME280;62175;49.416;8.690;2024-01-30T12:38:38;101927.10;;;9.68;52.26
43281;BME280;62175;49.416;8.690;2024-01-30T12:41:07;101930.15;;;9.69;52.30
43281;BME280;62175;49.416;8.690;2024-01-30T12:43:34;101929.88;;;9.68;53.08
43281;BME280;62175;49.416;8.690;2024-01-30T12:46:03;101923.80;;;10.05;51.97
43281;BME280;62175;49.416;8.690;2024-01-30T12:48:30;101916.50;;;9.83;52.16
43281;BME280;62175;49.416;8.690;2024-01-30T12:50:56;101921.15;;;10.23;51.76
43281;BME280;62175;49.416;8.690;2024-01-30T12:53:24;101919.47;;;9.92;52.08
43281;BME280;62175;49.416;8.690;2024-01-30T12:55:51;101920.63;;;9.81;52.60
43281;BME280;62175;49.416;8.690;2024-01-30T12:58:18;101919.77;;;9.88;52.73
43281;BME280;62175;49.416;8.690;2024-01-30T13:00:45;101923.95;;;9.87;52.60
43281;BME280;62175;49.416;8.690;2024-01-30T13:03:12;101925.85;;;9.85;52.84
43281;BME280;62175;49.416;8.690;2024-01-30T13:05:40;101922.94;;;9.89;53.55